Historique des mesures à Cassis (13260), France
Quotidien Résumé Mars 7, 2018 Unités:  Métrique/US    US   Métrique
« Précédent (Jour)
Suivant (Jour) »
Quotidien Hebdomadaire Mensuel Annuel Période au choix
  Maximum: Minimum: Moyenne:
Température: 32 °F /  TemperatureC °C 46.6 °F /  8.1 °C 50.2 °F /  10.1 °C
Point de rosée: 32 °F /  DewpointC °C 37.6 °F /  3.1 °C 39 °F /  3.9 °C
Humidité: Humidity % 55 % 62 %
Vitesse du vent: WindSpeedKMH mph /  0 km/h - 10 mph /  16.1 km/h
Rafales: WindSpeedGustKMH mph /  0 km/h - -
Vent:- - West
Pression: 0 in /  PressurehPa hPa 29.4 in /  995.1 hPa -
Précipitations: 0 in /  0.0 mm    
Historical Graphs
 
 
Mesures pour : Mars 7, 2018
Heure Temperature Point de rosée Pression Vent Vitesse du vent Rafales Humidité Pluie (par heure) Conditions
32 °F /  TemperatureC °C 32 °F /  DewpointC °C 0 in /  PressurehPa hPa Calm     Humidity % 0 in /  HourlyPrecipMM mm SoftwareType W/m2
00:12 50.2 °F /  10.1 °C 40.8 °F /  4.9 °C 29.4 in /  995.1 hPa ENE 2.9 mph /  4.7 km/h 3.5 mph /  5.6 km/h 70 % 0 in /  0.0 mm open2300-1.11 W/m2
01:12 50.7 °F /  10.4 °C 40.5 °F /  4.7 °C 29.4 in /  995.1 hPa North 1.8 mph /  2.9 km/h 3.5 mph /  5.6 km/h 68 % 0 in /  0.0 mm open2300-1.11 W/m2
02:12 49.6 °F /  9.8 °C 39.6 °F /  4.2 °C 29.4 in /  995.1 hPa North 4.0 mph /  6.4 km/h 4.0 mph /  6.4 km/h 68 % 0 in /  0.0 mm open2300-1.11 W/m2
03:12 48.7 °F /  9.3 °C 39.7 °F /  4.3 °C 29.4 in /  995.1 hPa West 10.5 mph /  16.9 km/h 10.5 mph /  16.9 km/h 71 % 0 in /  0.0 mm open2300-1.11 W/m2
04:12 48 °F /  8.9 °C 39.7 °F /  4.3 °C 29.4 in /  995.5 hPa NNW 2.6 mph /  4.2 km/h 2.9 mph /  4.7 km/h 73 % 0 in /  0.0 mm open2300-1.11 W/m2
05:12 47.7 °F /  8.7 °C 38.7 °F /  3.7 °C 29.4 in /  996.2 hPa NW 6.8 mph /  10.9 km/h 6.8 mph /  10.9 km/h 71 % 0 in /  0.0 mm open2300-1.11 W/m2
06:12 47.1 °F /  8.4 °C 38.1 °F /  3.4 °C 29.4 in /  996.5 hPa NNW 4.7 mph /  7.6 km/h 5.0 mph /  8 km/h 71 % 0 in /  0.0 mm open2300-1.11 W/m2
07:12 46.6 °F /  8.1 °C 37.8 °F /  3.2 °C 29.4 in /  996.8 hPa NNW 4.0 mph /  6.4 km/h 4.3 mph /  6.9 km/h 71 % 0 in /  0.0 mm open2300-1.11 W/m2
08:12 48.4 °F /  9.1 °C 38.1 °F /  3.4 °C 29.5 in /  997.5 hPa NNW 13.4 mph /  21.6 km/h 23.8 mph /  38.3 km/h 68 % 0 in /  0.0 mm open2300-1.11 W/m2
09:11 49.6 °F /  9.8 °C 38.3 °F /  3.5 °C 29.5 in /  998.5 hPa NW 11.1 mph /  17.9 km/h 11.6 mph /  18.7 km/h 65 % 0 in /  0.0 mm open2300-1.11 W/m2
10:12 49.8 °F /  9.9 °C 38.5 °F /  3.6 °C 29.5 in /  998.9 hPa WNW 13.0 mph /  20.9 km/h 13.0 mph /  20.9 km/h 65 % 0 in /  0.0 mm open2300-1.11 W/m2
11:11 51.4 °F /  10.8 °C 38.8 °F /  3.8 °C 29.5 in /  999.2 hPa WNW 4.7 mph /  7.6 km/h 16.3 mph /  26.2 km/h 62 % 0 in /  0.0 mm open2300-1.11 W/m2
12:12 54.3 °F /  12.4 °C 39.4 °F /  4.1 °C 29.5 in /  999.9 hPa NNW 5.5 mph /  8.9 km/h 22.4 mph /  36 km/h 57 % 0 in /  0.0 mm open2300-1.11 W/m2
13:12 54.7 °F /  12.6 °C 38.7 °F /  3.7 °C 29.5 in /  999.9 hPa WNW 8.2 mph /  13.2 km/h 24.5 mph /  39.4 km/h 55 % 0 in /  0.0 mm open2300-1.11 W/m2
14:12 54.5 °F /  12.5 °C 40.5 °F /  4.7 °C 29.5 in /  1000.2 hPa West 11.6 mph /  18.7 km/h 33.8 mph /  54.4 km/h 59 % 0 in /  0.0 mm open2300-1.11 W/m2
15:12 54.1 °F /  12.3 °C 40.6 °F /  4.8 °C 29.6 in /  1000.6 hPa NNW 11.9 mph /  19.2 km/h 41.4 mph /  66.6 km/h 60 % 0 in /  0.0 mm open2300-1.11 W/m2
16:12 53.8 °F /  12.1 °C 40.6 °F /  4.8 °C 29.6 in /  1000.6 hPa NNW 18.3 mph /  29.5 km/h 40.2 mph /  64.7 km/h 61 % 0 in /  0.0 mm open2300-1.11 W/m2
17:12 53.4 °F /  11.9 °C 40.6 °F /  4.8 °C 29.6 in /  1001.2 hPa WNW 32.3 mph /  52 km/h 35.6 mph /  57.3 km/h 62 % 0 in /  0.0 mm open2300-1.11 W/m2
18:12 52.7 °F /  11.5 °C 39.6 °F /  4.2 °C 29.6 in /  1002.3 hPa WNW 31.7 mph /  51 km/h 31.7 mph /  51 km/h 61 % 0 in /  0.0 mm open2300-1.11 W/m2
19:12 52.3 °F /  11.3 °C 39.2 °F /  4.0 °C 29.6 in /  1003.6 hPa West 7.6 mph /  12.2 km/h 13.0 mph /  20.9 km/h 61 % 0 in /  0.0 mm open2300-1.11 W/m2
20:12 51.6 °F /  10.9 °C 39.4 °F /  4.1 °C 29.7 in /  1004.3 hPa WNW 19.5 mph /  31.4 km/h 22.4 mph /  36 km/h 63 % 0 in /  0.0 mm open2300-1.11 W/m2
21:12 51.4 °F /  10.8 °C 39.9 °F /  4.4 °C 29.7 in /  1005.0 hPa NW 4.7 mph /  7.6 km/h 14.0 mph /  22.5 km/h 65 % 0 in /  0.0 mm open2300-1.11 W/m2
22:12 50.7 °F /  10.4 °C 38.5 °F /  3.6 °C 29.7 in /  1005.6 hPa NNW 5.5 mph /  8.9 km/h 9.3 mph /  15 km/h 63 % 0 in /  0.0 mm open2300-1.11 W/m2
23:12 49.3 °F /  9.6 °C 37.6 °F /  3.1 °C 29.7 in /  1006.7 hPa West 12.6 mph /  20.3 km/h 14.0 mph /  22.5 km/h 64 % 0 in /  0.0 mm open2300-1.11 W/m2
Observations météo à CASSIS
WU-History script by Weather Underground - 1 mb